Accueil
METAR-TAF:

METAR-TAF

Aéroports :

Aéroport de Bordeaux-Mérignac

Bordeaux, France

latitude: 44-50N, longitude: 000-42W, altitude: 49 m

Observation

Le bulletin a été fait il y a 48 minutes, à 19:30 UTC
Vent 6 kt de nord-ouest
Température 21°C
Humidité 49%
Pression 1017 hPa
Visibilité 10 km ou plus
pas de nuages en-dessous de 1500 mètres et pas de cumulonimbus.

METAR: LFBD 041930Z AUTO 32006KT CAVOK 21/10 Q1017 NOSIG

Heure: 22:18 (20:18 UTC)

Prévision

Le bulletin a été fait il y a 3 heures et 18 minutes, à 17:00 UTC
Prévision valable du 04 à 18 UTC au 05 à 24 UTC
Vent 6 kt de nord/nord-ouest
Visibilité 10 km ou plus
Nuages épars à une hauteur de 3000 ft
Evoluant progressivement
du 05 à 07 UTC au 05 à 09 UTC
Vent 8 kt de est/nord-est

TAF: LFBD 041700Z 0418/0524 33006KT 9999 SCT030 TX32/0515Z TN16/0506Z BECMG 0507/0509 07008KT

Observations et prévisions météorologiques de plus de 4000 aéroports (messages METAR et TAF).

Les stations disponibles sont représentées par des disques jaunes et rouges sur la carte.

Passer la souris dessus pour voir le nom de la station.

Cliquer dessus pour voir les observations et prévisions météorologiques.

Pour changer de carte: cliquez sur les boutons verts avec une croix noire pour zoomer, sur le bouton vert avec un tiret pour effectuer un zoom arrière, ou sur les flèches vertes pour les cartes adjacentes.


METAR-TAF: